Jewett, Wisconsin
Current Conditions -  °F | °C
As of 12:35 PM on Sunday 21 Dec 2014 (Local Time) from KRNH Reporting Station
Light Snow Light Snow  
Wind Chill: 26°   Ceiling: 600
Heat Index: 33°   Visibility: 1.2mi
Dew Point: 33°   Wind: 8mph
Humidity: 100%   Direction: 140°SE
Pressure: 29.82"   Gusts: NA
Location:  45.1804°N, 92.551°W
Report Text: KRNH 211835Z AUTO 14007KT 1 1/4SM -SN OVC006 01/01 A2982 RMK AO2 P0003 T00050005
Loading
Personal Weather Stations






























Interactive Weather Map New forecast layout! Learn more

10-Day Weather Forecast

Advertisements
Track Severe Weather on mobile